AST,Max TemperatureF,Mean TemperatureF,Min TemperatureF,Max Dew PointF,MeanDew PointF,Min DewpointF,Max Humidity, Mean Humidity, Min Humidity, Max Sea Level PressureIn, Mean Sea Level PressureIn, Min Sea Level PressureIn, Max VisibilityMiles, Mean VisibilityMiles, Min VisibilityMiles, Max Wind SpeedMPH, Mean Wind SpeedMPH, Max Gust SpeedMPH,PrecipitationIn, CloudCover, Events, WindDirDegrees
2012-11-1,88,84,80,75,72,70,79,68,53,29.98,29.93,29.89,6,6,6,13,8,,0.00,1,,76
2012-11-2,88,84,79,72,71,70,74,66,51,29.98,29.94,29.89,6,6,6,12,8,,0.00,2,,76
2012-11-3,87,82,77,73,71,70,83,66,51,29.99,29.95,29.92,9,6,6,14,9,,0.08,2,Rain,84
2012-11-4,87,84,80,75,73,70,79,69,55,29.98,29.94,29.89,6,6,6,12,8,,0.03,3,Rain,96
2012-11-5,86,82,77,75,74,72,89,76,61,29.96,29.92,29.89,16,6,5,13,8,,0.08,4,Rain,112
2012-11-6,87,82,78,75,73,72,89,71,55,29.96,29.92,29.89,6,6,6,12,9,,0.02,3,Rain,110
2012-11-7,86,82,79,75,73,72,84,71,55,29.95,29.91,29.86,19,7,6,12,8,,0.00,3,,113
2012-11-8,86,83,80,74,73,72,79,71,60,29.95,29.92,29.89,6,6,6,10,7,,0.01,2,Rain,107
2012-11-9,88,84,80,75,73,71,79,70,52,29.94,29.89,29.86,6,6,6,13,7,,0.00,2,Rain-Tornado,90
2012-11-10,88,84,80,74,73,71,79,68,50,29.95,29.89,29.83,6,6,6,12,9,,0.00,1,Rain,68
2012-11-11,88,84,80,75,74,72,84,73,51,29.95,29.90,29.83,6,6,6,12,9,,0.08,2,Rain,91
2012-11-12,85,81,77,75,73,70,94,74,55,29.98,29.90,29.86,12,6,6,18,8,,0.35,3,Rain,100
2012-11-13,85,81,77,75,74,72,89,75,59,29.96,29.91,29.86,12,7,6,14,7,,0.08,3,Rain,100
2012-11-14,86,82,77,77,74,72,84,74,63,29.98,29.92,29.86,16,7,3,13,10,,0.16,3,Rain,98
2012-11-15,87,83,79,75,73,72,84,69,22,29.94,29.90,29.86,12,6,6,12,10,,0.00,2,Rain,82
2012-11-16,86,82,77,75,74,73,84,74,60,29.95,29.90,29.86,10,6,6,12,9,,0.02,2,Rain,98
2012-11-17,86,82,79,75,74,73,84,74,61,29.99,29.94,29.89,19,7,5,12,9,,0.04,2,Rain,113
2012-11-18,86,83,80,77,75,73,84,75,63,29.98,29.95,29.92,12,7,5,12,8,,0.04,2,Rain,120
2012-11-19,84,80,76,75,74,70,89,79,62,29.98,29.92,29.86,19,7,3,12,7,,0.47,3,Rain,118
2012-11-20,86,82,79,73,71,70,74,67,57,29.90,29.86,29.83,6,6,6,12,7,,0.00,1,,138
2012-11-21,86,84,80,73,72,71,74,67,55,29.92,29.86,29.80,6,6,6,7,4,,0.00,2,,155
2012-11-22,86,83,80,74,73,71,79,69,60,29.95,29.89,29.83,6,6,6,7,4,,0.00,1,,151
2012-11-23,86,83,80,75,74,72,79,72,62,29.96,29.91,29.86,6,6,6,7,4,,0.00,1,,221
2012-11-24,86,82,78,74,73,72,83,73,60,29.99,29.93,29.89,8,6,6,10,5,,0.00,3,Rain-Tornado,31
2012-11-25,86,80,75,75,74,72,94,77,61,30.05,29.99,29.92,16,7,6,12,7,,0.39,3,Rain,84
2012-11-26,86,82,79,74,72,71,79,71,57,30.07,30.02,29.98,6,6,6,13,9,,0.01,2,Rain,88
2012-11-27,86,82,79,74,73,72,79,73,58,30.06,30.01,29.95,19,7,6,14,9,,0.08,3,Rain,89
2012-11-28,86,82,78,75,73,72,83,73,62,30.04,29.97,29.92,6,6,6,14,10,,0.08,2,Rain,97
2012-11-29,86,82,77,72,71,69,78,68,51,29.99,29.94,29.89,6,6,6,10,8,,0.08,1,,64
2012-11-30,84,80,76,73,71,69,83,73,59,29.98,29.94,29.89,19,7,2,10,8,,0.16,4,Rain,89